Time;durP1;ratioP1;P1;durP2;ratioP2;P2;SDS_P1;SDS_P2;PMS_P1;PMS_P2;Temp;Humidity;BMP_temperature;BMP_pressure;BME280_temperature;BME280_humidity;BME280_pressure;Samples;Min_cycle;Max_cycle;Signal;HPM_P1;HPM_P2
2023/12/25 00:01:03;;;;;;;15.57;3.83;;;;;;;;;;5030828;28;20033;-64
2023/12/25 00:03:30;;;;;;;18.07;4.00;;;;;;;;;;5031013;28;20050;-64
2023/12/25 00:05:58;;;;;;;17.60;3.70;;;;;;;;;;5031481;28;20061;-64
2023/12/25 00:08:24;;;;;;;16.63;3.50;;;;;;;;;;5031289;28;20045;-64
2023/12/25 00:10:50;;;;;;;16.83;2.63;;;;;;;;;;5030803;28;20041;-64
2023/12/25 00:13:16;;;;;;;12.63;2.80;;;;;;;;;;5030698;28;20041;-66
2023/12/25 00:15:42;;;;;;;18.20;3.87;;;;;;;;;;5031524;28;20514;-64
2023/12/25 00:18:08;;;;;;;15.43;3.07;;;;;;;;;;5030451;28;20049;-64
2023/12/25 00:20:34;;;;;;;13.93;3.07;;;;;;;;;;5029683;28;20133;-65
2023/12/25 00:23:00;;;;;;;10.30;3.27;;;;;;;;;;5029738;28;20124;-64
2023/12/25 00:25:26;;;;;;;12.37;3.17;;;;;;;;;;5031440;28;20075;-64
2023/12/25 00:27:53;;;;;;;14.83;4.10;;;;;;;;;;5030278;28;20095;-64
2023/12/25 00:30:19;;;;;;;16.70;3.77;;;;;;;;;;5027824;28;20058;-64
2023/12/25 00:32:45;;;;;;;17.27;4.00;;;;;;;;;;5030571;28;20046;-64
2023/12/25 00:35:11;;;;;;;15.10;3.80;;;;;;;;;;5030533;28;20052;-64
2023/12/25 00:37:37;;;;;;;14.87;3.23;;;;;;;;;;5029765;28;20047;-64
2023/12/25 00:40:03;;;;;;;16.23;3.10;;;;;;;;;;5030561;28;20069;-64
2023/12/25 00:42:29;;;;;;;14.20;3.60;;;;;;;;;;5030872;28;20515;-64
2023/12/25 00:44:55;;;;;;;21.47;4.07;;;;;;;;;;5030361;28;20157;-64
2023/12/25 00:47:21;;;;;;;26.20;4.67;;;;;;;;;;5030343;28;20561;-65
2023/12/25 00:49:47;;;;;;;12.80;2.90;;;;;;;;;;5030525;28;20439;-64
2023/12/25 00:52:17;;;;;;;16.73;3.43;;;;;;;;;;5029569;28;20037;-64
2023/12/25 00:54:43;;;;;;;19.83;3.47;;;;;;;;;;5030432;28;20068;-64
2023/12/25 00:57:09;;;;;;;19.00;3.20;;;;;;;;;;5029897;28;20180;-65
2023/12/25 00:59:35;;;;;;;18.70;2.80;;;;;;;;;;5030092;28;20470;-64
2023/12/25 01:02:01;;;;;;;19.33;3.53;;;;;;;;;;5029931;28;20107;-65
2023/12/25 01:04:27;;;;;;;18.07;4.10;;;;;;;;;;5028737;28;20136;-64
2023/12/25 01:06:53;;;;;;;17.50;3.70;;;;;;;;;;5029844;28;20407;-64
2023/12/25 01:09:19;;;;;;;19.87;3.60;;;;;;;;;;5028578;28;20419;-64
2023/12/25 01:11:45;;;;;;;17.27;3.67;;;;;;;;;;5029633;28;20124;-64
2023/12/25 01:14:11;;;;;;;16.97;3.07;;;;;;;;;;5029637;28;20412;-64
2023/12/25 01:16:38;;;;;;;18.43;3.37;;;;;;;;;;5030491;28;20041;-64
2023/12/25 01:19:04;;;;;;;19.00;3.30;;;;;;;;;;5028505;28;20056;-64
2023/12/25 01:21:32;;;;;;;18.90;3.93;;;;;;;;;;5029608;28;20518;-64
2023/12/25 01:23:58;;;;;;;17.30;3.17;;;;;;;;;;5029544;28;20041;-64
2023/12/25 01:26:25;;;;;;;17.83;3.03;;;;;;;;;;5028936;28;20050;-64
2023/12/25 01:28:51;;;;;;;18.10;3.07;;;;;;;;;;5012260;28;20038;-64
2023/12/25 01:31:18;;;;;;;19.93;3.90;;;;;;;;;;5029821;28;20577;-64
2023/12/25 01:33:44;;;;;;;15.87;3.80;;;;;;;;;;5028207;28;20116;-64
2023/12/25 01:36:10;;;;;;;14.03;3.90;;;;;;;;;;5029580;28;20049;-64
2023/12/25 01:38:36;;;;;;;15.53;2.73;;;;;;;;;;5029376;28;20045;-64
2023/12/25 01:41:02;;;;;;;15.13;3.00;;;;;;;;;;5027481;28;20507;-64
2023/12/25 01:43:28;;;;;;;19.23;3.90;;;;;;;;;;5029176;28;20412;-64
2023/12/25 01:45:54;;;;;;;15.57;3.83;;;;;;;;;;5029544;28;20144;-64
2023/12/25 01:48:21;;;;;;;15.07;2.80;;;;;;;;;;5029153;28;20124;-64
2023/12/25 01:50:47;;;;;;;18.13;3.00;;;;;;;;;;5028810;28;20100;-64
2023/12/25 01:53:13;;;;;;;17.47;3.53;;;;;;;;;;5028620;28;20073;-64
2023/12/25 01:55:40;;;;;;;18.33;3.57;;;;;;;;;;5029475;28;20504;-64
2023/12/25 01:58:06;;;;;;;14.27;3.37;;;;;;;;;;5028984;28;20052;-64
2023/12/25 02:00:32;;;;;;;19.47;3.23;;;;;;;;;;5028551;28;20128;-64
2023/12/25 02:03:00;;;;;;;14.13;3.70;;;;;;;;;;5028518;28;20045;-64
2023/12/25 02:05:26;;;;;;;18.50;3.43;;;;;;;;;;5027188;28;20469;-64
2023/12/25 02:07:52;;;;;;;15.97;3.43;;;;;;;;;;5026848;28;20038;-64
2023/12/25 02:10:27;;;;;;;12.20;2.67;;;;;;;;;;5028932;28;20053;-64
2023/12/25 02:12:54;;;;;;;19.67;3.17;;;;;;;;;;5028409;28;20129;-64
2023/12/25 02:15:20;;;;;;;21.80;3.83;;;;;;;;;;5028952;28;20080;-64
2023/12/25 02:17:46;;;;;;;14.90;4.33;;;;;;;;;;5028150;28;20519;-64
2023/12/25 02:20:13;;;;;;;14.40;3.63;;;;;;;;;;5028402;28;20045;-64
2023/12/25 02:22:40;;;;;;;12.97;3.33;;;;;;;;;;5028298;28;20037;-64
2023/12/25 02:25:10;;;;;;;14.73;3.53;;;;;;;;;;5028443;28;20053;-64
2023/12/25 02:27:36;;;;;;;9.03;2.33;;;;;;;;;;5028408;28;20055;-64
2023/12/25 02:30:02;;;;;;;12.07;3.33;;;;;;;;;;5027763;28;20072;-64
2023/12/25 02:32:29;;;;;;;22.53;2.60;;;;;;;;;;5028196;28;20045;-64
2023/12/25 02:34:55;;;;;;;13.77;2.97;;;;;;;;;;5028088;28;20187;-64
2023/12/25 02:37:21;;;;;;;16.33;2.50;;;;;;;;;;5028775;28;20140;-64
2023/12/25 02:39:47;;;;;;;20.37;2.37;;;;;;;;;;5027992;28;20103;-65
2023/12/25 02:42:13;;;;;;;10.50;2.73;;;;;;;;;;5027890;28;20080;-64
2023/12/25 02:44:39;;;;;;;17.27;3.60;;;;;;;;;;5026107;28;20042;-64
2023/12/25 02:47:05;;;;;;;16.30;2.40;;;;;;;;;;5027826;28;20524;-64
2023/12/25 02:49:31;;;;;;;14.57;3.83;;;;;;;;;;5028000;28;20041;-64
2023/12/25 02:51:57;;;;;;;9.87;2.27;;;;;;;;;;5028150;28;20049;-64
2023/12/25 02:54:23;;;;;;;12.30;2.30;;;;;;;;;;5027131;28;20041;-64
2023/12/25 02:56:49;;;;;;;10.23;1.93;;;;;;;;;;5028039;28;20060;-64
2023/12/25 02:59:15;;;;;;;14.13;3.80;;;;;;;;;;5027242;28;20549;-64
2023/12/25 03:01:41;;;;;;;10.03;2.60;;;;;;;;;;5027468;28;20087;-64
2023/12/25 03:04:07;;;;;;;15.97;2.73;;;;;;;;;;5027926;28;20068;-64
2023/12/25 03:06:33;;;;;;;7.23;1.90;;;;;;;;;;5027297;28;20491;-64
2023/12/25 03:08:59;;;;;;;11.73;3.13;;;;;;;;;;5028644;28;20038;-64
2023/12/25 03:11:25;;;;;;;10.80;2.30;;;;;;;;;;5027106;28;20412;-64
2023/12/25 03:13:51;;;;;;;14.63;2.37;;;;;;;;;;5027179;28;20049;-64
2023/12/25 03:16:19;;;;;;;8.73;2.30;;;;;;;;;;5027655;28;20053;-64
2023/12/25 03:18:45;;;;;;;12.03;2.00;;;;;;;;;;5027095;28;20045;-64
2023/12/25 03:21:12;;;;;;;13.93;2.57;;;;;;;;;;5027676;28;20522;-64
2023/12/25 03:23:38;;;;;;;10.17;1.90;;;;;;;;;;5026775;28;20049;-64
2023/12/25 03:26:05;;;;;;;13.27;1.90;;;;;;;;;;5027817;28;20439;-64
2023/12/25 03:28:31;;;;;;;13.47;1.77;;;;;;;;;;5028441;28;20048;-64
2023/12/25 03:30:57;;;;;;;7.80;1.60;;;;;;;;;;5024472;28;20045;-64
2023/12/25 03:33:23;;;;;;;19.57;3.50;;;;;;;;;;5026777;28;20041;-64
2023/12/25 03:35:49;;;;;;;14.07;2.40;;;;;;;;;;5026673;28;20053;-64
2023/12/25 03:38:15;;;;;;;16.37;2.27;;;;;;;;;;5027060;28;20045;-64
2023/12/25 03:40:41;;;;;;;13.00;2.20;;;;;;;;;;5027558;28;20492;-64
2023/12/25 03:43:07;;;;;;;8.47;1.10;;;;;;;;;;5027575;28;20488;-64
2023/12/25 03:45:33;;;;;;;8.73;1.93;;;;;;;;;;5027391;28;20084;-64
2023/12/25 03:47:59;;;;;;;7.43;1.50;;;;;;;;;;5026989;28;20057;-64
2023/12/25 03:50:25;;;;;;;12.00;3.07;;;;;;;;;;5027318;28;20052;-64
2023/12/25 03:52:51;;;;;;;11.73;2.23;;;;;;;;;;5027535;28;20503;-64
2023/12/25 03:55:17;;;;;;;8.53;1.93;;;;;;;;;;5026263;28;20061;-64
2023/12/25 03:57:43;;;;;;;13.40;1.83;;;;;;;;;;5025661;28;20041;-64
2023/12/25 04:00:09;;;;;;;8.27;1.90;;;;;;;;;;5026166;28;20092;-64
2023/12/25 04:02:36;;;;;;;9.03;2.03;;;;;;;;;;5026021;28;20049;-64
2023/12/25 04:05:02;;;;;;;9.90;2.97;;;;;;;;;;5025694;28;20056;-64
2023/12/25 04:07:28;;;;;;;8.53;1.83;;;;;;;;;;5026225;28;20498;-64
2023/12/25 04:09:54;;;;;;;9.90;2.23;;;;;;;;;;5023893;28;20454;-64
2023/12/25 04:12:20;;;;;;;12.47;1.67;;;;;;;;;;5027051;28;20041;-64
2023/12/25 04:14:46;;;;;;;11.00;3.23;;;;;;;;;;5026293;28;20068;-64
2023/12/25 04:17:12;;;;;;;12.90;2.07;;;;;;;;;;5027698;28;20092;-64
2023/12/25 04:19:40;;;;;;;11.17;2.80;;;;;;;;;;5027693;28;20417;-65
2023/12/25 04:22:06;;;;;;;8.60;1.73;;;;;;;;;;5027609;28;20081;-64
2023/12/25 04:24:32;;;;;;;9.80;1.70;;;;;;;;;;5029896;28;20080;-64
2023/12/25 04:26:58;;;;;;;8.10;1.77;;;;;;;;;;5031044;28;20045;-64
2023/12/25 04:29:24;;;;;;;12.70;2.07;;;;;;;;;;5031492;28;20049;-64
2023/12/25 04:31:50;;;;;;;12.83;1.77;;;;;;;;;;5046358;28;20088;-64
2023/12/25 04:34:16;;;;;;;7.60;1.83;;;;;;;;;;5031145;28;20500;-64
2023/12/25 04:36:43;;;;;;;11.83;2.07;;;;;;;;;;5031140;28;20056;-64
2023/12/25 04:39:11;;;;;;;8.37;1.60;;;;;;;;;;5030904;28;20045;-64
2023/12/25 04:41:37;;;;;;;12.77;2.43;;;;;;;;;;5030547;28;20415;-64
2023/12/25 04:44:03;;;;;;;6.50;1.67;;;;;;;;;;5031067;28;20046;-64
2023/12/25 04:46:29;;;;;;;11.13;2.03;;;;;;;;;;5030756;28;20056;-64
2023/12/25 04:48:55;;;;;;;11.77;2.53;;;;;;;;;;5030318;28;20088;-64
2023/12/25 04:51:21;;;;;;;6.20;2.10;;;;;;;;;;5030745;28;20041;-64
2023/12/25 04:53:48;;;;;;;8.80;1.93;;;;;;;;;;5030470;28;20170;-64
2023/12/25 04:56:16;;;;;;;7.67;1.37;;;;;;;;;;5030373;28;20045;-64
2023/12/25 04:58:42;;;;;;;9.87;2.93;;;;;;;;;;5029564;28;20057;-64
2023/12/25 05:01:08;;;;;;;13.13;2.17;;;;;;;;;;5030353;28;20053;-64
2023/12/25 05:03:34;;;;;;;12.53;2.23;;;;;;;;;;5030785;28;20447;-64
2023/12/25 05:06:00;;;;;;;9.37;2.17;;;;;;;;;;5030555;28;20038;-64
2023/12/25 05:08:26;;;;;;;12.47;1.93;;;;;;;;;;5030365;28;20129;-64
2023/12/25 05:10:52;;;;;;;10.33;2.00;;;;;;;;;;5029766;28;20042;-64
2023/12/25 05:13:18;;;;;;;13.30;2.20;;;;;;;;;;5030611;28;20042;-64
2023/12/25 05:15:44;;;;;;;13.67;2.60;;;;;;;;;;5030808;28;20054;-64
2023/12/25 05:18:10;;;;;;;10.37;3.47;;;;;;;;;;5030898;28;20049;-64
2023/12/25 05:20:36;;;;;;;13.53;2.63;;;;;;;;;;5030036;28;20033;-64
2023/12/25 05:23:02;;;;;;;8.77;2.60;;;;;;;;;;5029213;28;20084;-64
2023/12/25 05:25:28;;;;;;;15.20;2.10;;;;;;;;;;5030361;28;20484;-64
2023/12/25 05:27:54;;;;;;;15.57;3.27;;;;;;;;;;5030137;28;20053;-64
2023/12/25 05:30:20;;;;;;;17.17;2.97;;;;;;;;;;5030264;28;20041;-64
2023/12/25 05:32:47;;;;;;;17.40;2.90;;;;;;;;;;5030279;28;20045;-64
2023/12/25 05:35:13;;;;;;;10.93;2.10;;;;;;;;;;5028535;28;20495;-64
2023/12/25 05:37:39;;;;;;;13.67;3.03;;;;;;;;;;5029574;28;20055;-64
2023/12/25 05:40:06;;;;;;;18.03;2.57;;;;;;;;;;5030111;28;20045;-64
2023/12/25 05:42:32;;;;;;;11.30;2.40;;;;;;;;;;5029428;28;20064;-65
2023/12/25 05:44:58;;;;;;;14.90;3.10;;;;;;;;;;5029079;28;20062;-64
2023/12/25 05:47:25;;;;;;;17.13;2.20;;;;;;;;;;5029512;28;20085;-64
2023/12/25 05:49:53;;;;;;;13.33;2.73;;;;;;;;;;5029896;28;20180;-64
2023/12/25 05:52:19;;;;;;;13.90;2.30;;;;;;;;;;5028967;28;20085;-64
2023/12/25 05:54:45;;;;;;;13.80;2.57;;;;;;;;;;5029825;28;20088;-64
2023/12/25 05:57:11;;;;;;;22.23;3.70;;;;;;;;;;5029261;28;20045;-64
2023/12/25 05:59:37;;;;;;;14.50;2.60;;;;;;;;;;5028804;28;20100;-64
2023/12/25 06:02:04;;;;;;;15.17;2.03;;;;;;;;;;5029109;28;20053;-64
2023/12/25 06:04:30;;;;;;;14.03;2.47;;;;;;;;;;5029274;28;20107;-64
2023/12/25 06:06:56;;;;;;;14.47;2.33;;;;;;;;;;5029710;28;20049;-64
2023/12/25 06:09:23;;;;;;;14.83;2.30;;;;;;;;;;5029046;28;20530;-64
2023/12/25 06:11:49;;;;;;;17.13;2.67;;;;;;;;;;5029209;28;20415;-64
2023/12/25 06:14:15;;;;;;;26.20;3.60;;;;;;;;;;5029526;28;20132;-64
2023/12/25 06:16:41;;;;;;;12.77;2.90;;;;;;;;;;5029227;28;20575;-64
2023/12/25 06:19:08;;;;;;;11.20;3.07;;;;;;;;;;5028029;28;20049;-64
2023/12/25 06:21:34;;;;;;;10.13;2.20;;;;;;;;;;5029290;28;20053;-64
2023/12/25 06:24:00;;;;;;;7.83;1.63;;;;;;;;;;5029172;28;20037;-64
2023/12/25 06:26:26;;;;;;;15.30;2.70;;;;;;;;;;5029166;28;20041;-64
2023/12/25 06:28:52;;;;;;;10.87;2.17;;;;;;;;;;5023969;28;20463;-64
2023/12/25 06:31:18;;;;;;;10.97;2.60;;;;;;;;;;5020626;28;20037;-64
2023/12/25 06:33:44;;;;;;;15.63;2.37;;;;;;;;;;5037769;28;20053;-64
2023/12/25 06:36:10;;;;;;;14.70;2.33;;;;;;;;;;5043105;28;20068;-64
2023/12/25 06:38:36;;;;;;;11.33;1.90;;;;;;;;;;5029089;28;20551;-64
2023/12/25 06:41:03;;;;;;;15.60;2.27;;;;;;;;;;5028885;28;20045;-64
2023/12/25 06:43:29;;;;;;;13.67;2.20;;;;;;;;;;5028622;28;20057;-64
2023/12/25 06:45:57;;;;;;;15.30;2.60;;;;;;;;;;5027303;28;20504;-64
2023/12/25 06:48:23;;;;;;;9.67;1.73;;;;;;;;;;5028899;28;20048;-64
2023/12/25 06:50:49;;;;;;;13.00;2.17;;;;;;;;;;5028604;28;20041;-64
2023/12/25 06:53:15;;;;;;;10.93;2.93;;;;;;;;;;5028543;28;20072;-64
2023/12/25 06:55:41;;;;;;;10.40;2.13;;;;;;;;;;5028198;28;20049;-64
2023/12/25 06:58:07;;;;;;;12.13;2.60;;;;;;;;;;5028681;28;20444;-64
2023/12/25 07:00:34;;;;;;;12.53;2.40;;;;;;;;;;5026400;28;20395;-64
2023/12/25 07:03:00;;;;;;;13.83;2.50;;;;;;;;;;5028487;28;20042;-64
2023/12/25 07:05:26;;;;;;;15.23;3.50;;;;;;;;;;5028709;28;20045;-64
2023/12/25 07:07:52;;;;;;;13.40;2.40;;;;;;;;;;5028643;28;20046;-64
2023/12/25 07:10:18;;;;;;;10.60;2.20;;;;;;;;;;5028198;28;20526;-64
2023/12/25 07:12:44;;;;;;;10.93;2.00;;;;;;;;;;5028939;28;20045;-64
2023/12/25 07:15:10;;;;;;;10.63;2.37;;;;;;;;;;5028548;28;20131;-64
2023/12/25 07:17:36;;;;;;;9.60;1.80;;;;;;;;;;5028091;28;20169;-64
2023/12/25 07:20:02;;;;;;;16.20;3.30;;;;;;;;;;5028204;28;20128;-64
2023/12/25 07:22:29;;;;;;;23.07;3.63;;;;;;;;;;5028404;28;20135;-64
2023/12/25 07:24:55;;;;;;;10.67;1.70;;;;;;;;;;5027549;28;20060;-64
2023/12/25 07:27:21;;;;;;;8.03;2.20;;;;;;;;;;5028388;28;20126;-64
2023/12/25 07:29:47;;;;;;;11.70;1.93;;;;;;;;;;5026375;28;20095;-64
2023/12/25 07:32:14;;;;;;;11.90;2.43;;;;;;;;;;5028340;28;20605;-64
2023/12/25 07:34:40;;;;;;;10.90;2.17;;;;;;;;;;5022169;28;20123;-64
2023/12/25 07:37:06;;;;;;;10.43;1.80;;;;;;;;;;5021670;28;20504;-64
2023/12/25 07:39:32;;;;;;;11.83;2.43;;;;;;;;;;5029049;28;20069;-64
2023/12/25 07:41:58;;;;;;;8.27;1.60;;;;;;;;;;5028754;28;20107;-64
2023/12/25 07:44:24;;;;;;;9.03;1.60;;;;;;;;;;5027984;28;20064;-64
2023/12/25 07:46:50;;;;;;;10.43;2.07;;;;;;;;;;5028061;28;20454;-64
2023/12/25 07:49:17;;;;;;;7.40;1.63;;;;;;;;;;5027636;28;20579;-64
2023/12/25 07:51:43;;;;;;;10.37;2.27;;;;;;;;;;5027574;28;20092;-64
2023/12/25 07:54:09;;;;;;;7.77;2.53;;;;;;;;;;5027482;28;20532;-64
2023/12/25 07:56:35;;;;;;;14.60;1.90;;;;;;;;;;5027765;28;20136;-64
2023/12/25 07:59:01;;;;;;;7.30;1.90;;;;;;;;;;5029746;28;20082;-64
2023/12/25 08:01:27;;;;;;;11.20;1.73;;;;;;;;;;5031078;28;20053;-64
2023/12/25 08:03:53;;;;;;;12.23;1.50;;;;;;;;;;5031741;28;20107;-64
2023/12/25 08:06:19;;;;;;;6.47;1.60;;;;;;;;;;5030792;28;20049;-64
2023/12/25 08:08:47;;;;;;;11.27;2.70;;;;;;;;;;5029480;28;20041;-64
2023/12/25 08:11:14;;;;;;;12.73;1.47;;;;;;;;;;5031648;28;20052;-64
2023/12/25 08:13:40;;;;;;;9.73;1.93;;;;;;;;;;5031554;28;20514;-64
2023/12/25 08:16:06;;;;;;;11.77;1.97;;;;;;;;;;5030098;28;20495;-64
2023/12/25 08:18:32;;;;;;;10.40;1.80;;;;;;;;;;5030896;28;20049;-64
2023/12/25 08:20:59;;;;;;;10.87;2.00;;;;;;;;;;5031281;28;20487;-64
2023/12/25 08:23:25;;;;;;;8.40;1.40;;;;;;;;;;5031271;28;20049;-64
2023/12/25 08:25:51;;;;;;;12.10;1.83;;;;;;;;;;5031149;28;20073;-64
2023/12/25 08:28:17;;;;;;;12.07;2.03;;;;;;;;;;5031132;28;20049;-64
2023/12/25 08:30:43;;;;;;;10.20;1.73;;;;;;;;;;5028562;28;20053;-64
2023/12/25 08:33:09;;;;;;;10.00;1.40;;;;;;;;;;5031068;28;20099;-64
2023/12/25 08:35:35;;;;;;;13.40;2.07;;;;;;;;;;5029942;28;20133;-64
2023/12/25 08:38:02;;;;;;;9.83;1.53;;;;;;;;;;5031209;28;20068;-64
2023/12/25 08:40:28;;;;;;;11.73;1.60;;;;;;;;;;5030607;28;20118;-64
2023/12/25 08:42:54;;;;;;;14.03;1.87;;;;;;;;;;5030194;28;20066;-63
2023/12/25 08:45:20;;;;;;;14.53;2.57;;;;;;;;;;5028364;28;20049;-64
2023/12/25 08:47:51;;;;;;;8.93;2.10;;;;;;;;;;5030324;28;20045;-64
2023/12/25 08:50:17;;;;;;;18.63;2.70;;;;;;;;;;5031572;28;20152;-64
2023/12/25 08:52:43;;;;;;;12.50;2.17;;;;;;;;;;5029640;28;20132;-64
2023/12/25 08:55:10;;;;;;;11.73;2.30;;;;;;;;;;5030617;28;20618;-64
2023/12/25 08:57:36;;;;;;;12.93;3.60;;;;;;;;;;5029376;28;20049;-64
2023/12/25 09:00:06;;;;;;;13.93;2.40;;;;;;;;;;5029798;28;20054;-64
2023/12/25 09:02:32;;;;;;;13.87;2.93;;;;;;;;;;5030109;28;20053;-64
2023/12/25 09:04:58;;;;;;;14.43;2.93;;;;;;;;;;5030548;28;20136;-64
2023/12/25 09:07:24;;;;;;;9.77;2.10;;;;;;;;;;5029593;28;20133;-64
2023/12/25 09:09:50;;;;;;;21.57;2.40;;;;;;;;;;5025189;28;20037;-64
2023/12/25 09:12:16;;;;;;;13.13;2.67;;;;;;;;;;5028107;28;20466;-64
2023/12/25 09:14:43;;;;;;;12.57;2.93;;;;;;;;;;5026899;28;20041;-64
2023/12/25 09:17:09;;;;;;;12.47;2.43;;;;;;;;;;5028688;28;20126;-64
2023/12/25 09:19:35;;;;;;;15.43;3.53;;;;;;;;;;5029374;28;20045;-64
2023/12/25 09:22:01;;;;;;;13.80;2.40;;;;;;;;;;5026825;28;20040;-64
2023/12/25 09:24:27;;;;;;;15.37;2.43;;;;;;;;;;5029552;28;20130;-64
2023/12/25 09:26:53;;;;;;;12.47;3.10;;;;;;;;;;5028814;28;20076;-64
2023/12/25 09:29:19;;;;;;;11.37;2.03;;;;;;;;;;5027110;28;20053;-64
2023/12/25 09:31:45;;;;;;;18.50;4.03;;;;;;;;;;5029783;28;20047;-64
2023/12/25 09:34:11;;;;;;;11.57;2.30;;;;;;;;;;5029670;28;20045;-64
2023/12/25 09:36:37;;;;;;;12.63;2.40;;;;;;;;;;5029971;28;20516;-64
2023/12/25 09:39:03;;;;;;;13.00;2.40;;;;;;;;;;5027682;28;20049;-64
2023/12/25 09:41:32;;;;;;;13.17;2.50;;;;;;;;;;5026211;28;20049;-64
2023/12/25 09:44:00;;;;;;;17.27;3.30;;;;;;;;;;5026758;28;20606;-64
2023/12/25 09:46:26;;;;;;;11.80;2.27;;;;;;;;;;5026363;28;20476;-64
2023/12/25 09:48:52;;;;;;;17.83;3.07;;;;;;;;;;5027706;28;20780;-64
2023/12/25 09:51:19;;;;;;;12.00;2.20;;;;;;;;;;5028801;28;20045;-64
2023/12/25 09:53:45;;;;;;;16.53;4.57;;;;;;;;;;5026562;28;20420;-64
2023/12/25 09:56:12;;;;;;;17.13;2.87;;;;;;;;;;5022390;28;20080;-64
2023/12/25 09:58:39;;;;;;;12.50;2.73;;;;;;;;;;5021527;28;20057;-64
2023/12/25 10:01:06;;;;;;;9.53;2.40;;;;;;;;;;5021866;28;20488;-64
2023/12/25 10:03:33;;;;;;;15.73;3.10;;;;;;;;;;5022225;28;20075;-64
2023/12/25 10:05:59;;;;;;;19.00;2.60;;;;;;;;;;5028082;28;20049;-64
2023/12/25 10:08:27;;;;;;;17.57;2.73;;;;;;;;;;5027106;28;20049;-64
2023/12/25 10:10:56;;;;;;;13.93;2.53;;;;;;;;;;5028265;28;20037;-64
2023/12/25 10:13:25;;;;;;;15.10;2.20;;;;;;;;;;5028012;28;20476;-64
2023/12/25 10:15:51;;;;;;;11.53;2.40;;;;;;;;;;5020131;28;20034;-64
2023/12/25 10:18:19;;;;;;;14.10;2.80;;;;;;;;;;5023244;28;20124;-64
2023/12/25 10:20:57;;;;;;;14.70;2.50;;;;;;;;;;5024615;28;20126;-64
2023/12/25 10:23:31;;;;;;;12.93;2.73;;;;;;;;;;5027246;28;20111;-64
2023/12/25 10:25:58;;;;;;;13.30;2.42;;;;;;;;;;5028362;28;20059;-64
2023/12/25 10:28:28;;;;;;;15.33;3.20;;;;;;;;;;5027944;28;20195;-64
2023/12/25 10:31:00;;;;;;;13.20;4.43;;;;;;;;;;5013828;28;20128;-64
2023/12/25 10:33:26;;;;;;;14.83;2.27;;;;;;;;;;5023271;28;20045;-64
2023/12/25 10:36:04;;;;;;;11.77;2.23;;;;;;;;;;5028433;28;20515;-64
2023/12/25 10:38:37;;;;;;;8.67;2.30;;;;;;;;;;5028561;28;20555;-64
2023/12/25 10:41:19;;;;;;;11.45;2.33;;;;;;;;;;5027973;28;20029;-64
2023/12/25 10:43:50;;;;;;;8.90;2.07;;;;;;;;;;5027735;28;20136;-63
2023/12/25 10:46:17;;;;;;;15.03;2.57;;;;;;;;;;5028640;28;20516;-64
2023/12/25 10:48:49;;;;;;;17.10;3.00;;;;;;;;;;5027595;28;20968;-63
2023/12/25 10:51:15;;;;;;;12.93;1.90;;;;;;;;;;5026851;28;20056;-63
2023/12/25 10:53:42;;;;;;;13.07;2.60;;;;;;;;;;5025937;28;20305;-64
2023/12/25 10:56:08;;;;;;;15.10;2.57;;;;;;;;;;5027904;28;20507;-64
2023/12/25 10:58:34;;;;;;;15.87;3.20;;;;;;;;;;5027640;28;20046;-63
2023/12/25 11:01:01;;;;;;;13.23;2.13;;;;;;;;;;5028057;28;20037;-63
2023/12/25 11:03:28;;;;;;;12.27;3.13;;;;;;;;;;5029859;28;20492;-63
2023/12/25 11:05:55;;;;;;;10.93;2.13;;;;;;;;;;5027462;28;20041;-64
2023/12/25 11:08:21;;;;;;;10.93;2.67;;;;;;;;;;5029520;28;20085;-63
2023/12/25 11:10:48;;;;;;;11.40;2.23;;;;;;;;;;5035629;28;20040;-63
2023/12/25 11:13:14;;;;;;;12.60;2.60;;;;;;;;;;5036363;28;20511;-63
2023/12/25 11:15:40;;;;;;;6.80;2.03;;;;;;;;;;5039949;28;20131;-63
2023/12/25 11:18:09;;;;;;;18.60;2.50;;;;;;;;;;5034579;28;20047;-64
2023/12/25 11:20:35;;;;;;;10.90;1.97;;;;;;;;;;5032913;28;20045;-64
2023/12/25 11:23:06;;;;;;;11.07;2.03;;;;;;;;;;5037581;28;20049;-64
2023/12/25 11:25:33;;;;;;;10.30;2.53;;;;;;;;;;5037008;28;20047;-64
2023/12/25 11:27:59;;;;;;;9.33;1.90;;;;;;;;;;5038155;28;20487;-63
2023/12/25 11:30:26;;;;;;;15.13;3.37;;;;;;;;;;5038817;28;20052;-64
2023/12/25 11:32:52;;;;;;;12.10;2.17;;;;;;;;;;5038118;28;20046;-64
2023/12/25 11:35:28;;;;;;;16.40;2.23;;;;;;;;;;5041279;28;20194;-64
2023/12/25 11:38:12;;;;;;;15.03;2.20;;;;;;;;;;5045823;28;20478;-64
2023/12/25 11:40:39;;;;;;;10.97;2.10;;;;;;;;;;5028033;28;20520;-63
2023/12/25 11:43:07;;;;;;;12.63;2.87;;;;;;;;;;5034910;28;20504;-63
2023/12/25 11:45:37;;;;;;;14.07;2.50;;;;;;;;;;5042488;28;20463;-64
2023/12/25 11:48:05;;;;;;;8.30;3.30;;;;;;;;;;5038608;28;20050;-64
2023/12/25 11:50:32;;;;;;;12.17;2.57;;;;;;;;;;5039130;28;20403;-63
2023/12/25 11:52:58;;;;;;;9.97;2.00;;;;;;;;;;5041129;28;20056;-63
2023/12/25 11:55:24;;;;;;;10.77;3.03;;;;;;;;;;5040001;28;20056;-63
2023/12/25 11:57:51;;;;;;;12.90;2.40;;;;;;;;;;5042297;28;20037;-64
2023/12/25 12:00:17;;;;;;;13.20;2.33;;;;;;;;;;5037439;28;20049;-63
2023/12/25 12:02:44;;;;;;;11.83;2.60;;;;;;;;;;5041350;28;20049;-63
2023/12/25 12:05:10;;;;;;;12.87;2.07;;;;;;;;;;5044424;28;20048;-64
2023/12/25 12:07:36;;;;;;;15.63;3.23;;;;;;;;;;5040979;28;20072;-63
2023/12/25 12:10:02;;;;;;;8.30;2.03;;;;;;;;;;5038179;28;20076;-64
2023/12/25 12:12:28;;;;;;;11.00;1.77;;;;;;;;;;5040014;28;20111;-63
2023/12/25 12:14:54;;;;;;;10.07;2.50;;;;;;;;;;5040190;28;20044;-63
2023/12/25 12:17:21;;;;;;;8.17;1.80;;;;;;;;;;5038583;28;20495;-63
2023/12/25 12:19:47;;;;;;;15.73;2.60;;;;;;;;;;5039211;28;20073;-63
2023/12/25 12:22:13;;;;;;;9.23;2.20;;;;;;;;;;5035536;28;20053;-63
2023/12/25 12:24:39;;;;;;;15.87;2.57;;;;;;;;;;5037008;28;20266;-63
2023/12/25 12:27:08;;;;;;;12.63;2.30;;;;;;;;;;5034976;28;20522;-64
2023/12/25 12:29:34;;;;;;;8.57;1.77;;;;;;;;;;5039887;28;20499;-64
2023/12/25 12:32:00;;;;;;;13.83;3.00;;;;;;;;;;5041301;28;20061;-63
2023/12/25 12:34:26;;;;;;;10.77;2.40;;;;;;;;;;5033682;28;20086;-64
2023/12/25 12:36:57;;;;;;;8.67;2.13;;;;;;;;;;5037032;28;20094;-63
2023/12/25 12:39:23;;;;;;;10.20;2.30;;;;;;;;;;5036438;28;20056;-63
2023/12/25 12:41:49;;;;;;;15.17;2.77;;;;;;;;;;5036348;28;20037;-63
2023/12/25 12:44:15;;;;;;;13.60;2.37;;;;;;;;;;5037643;28;20103;-63
2023/12/25 12:46:41;;;;;;;7.13;2.50;;;;;;;;;;5035858;28;20521;-63
2023/12/25 12:49:07;;;;;;;11.90;3.17;;;;;;;;;;5040564;28;20072;-63
2023/12/25 12:51:33;;;;;;;10.10;2.17;;;;;;;;;;5039104;28;20053;-64
2023/12/25 12:53:59;;;;;;;13.23;2.83;;;;;;;;;;5039896;28;20543;-63
2023/12/25 12:56:28;;;;;;;14.03;2.20;;;;;;;;;;5034650;28;20132;-63
2023/12/25 12:58:54;;;;;;;11.93;2.20;;;;;;;;;;5038481;28;20148;-63
2023/12/25 13:01:22;;;;;;;8.10;2.13;;;;;;;;;;5038057;28;20212;-63
2023/12/25 13:03:48;;;;;;;7.60;1.97;;;;;;;;;;5038780;28;20132;-63
2023/12/25 13:06:14;;;;;;;7.63;2.47;;;;;;;;;;5038064;28;20041;-63
2023/12/25 13:08:40;;;;;;;10.00;2.03;;;;;;;;;;5041856;28;20052;-64
2023/12/25 13:11:07;;;;;;;13.47;2.10;;;;;;;;;;5041405;28;20046;-63
2023/12/25 13:13:33;;;;;;;14.67;2.33;;;;;;;;;;5037008;28;20146;-63
2023/12/25 13:15:59;;;;;;;7.17;2.30;;;;;;;;;;5035004;28;20045;-63
2023/12/25 13:18:25;;;;;;;10.80;2.20;;;;;;;;;;5036800;28;20046;-63
2023/12/25 13:20:52;;;;;;;12.73;2.50;;;;;;;;;;5038612;28;20045;-63
2023/12/25 13:23:18;;;;;;;10.07;2.43;;;;;;;;;;5038307;28;20120;-63
2023/12/25 13:25:44;;;;;;;13.83;2.13;;;;;;;;;;5040389;28;20498;-63
2023/12/25 13:28:09;;;;;;;8.13;1.67;;;;;;;;;;5042130;28;20048;-63
2023/12/25 13:30:35;;;;;;;8.67;2.27;;;;;;;;;;5037117;28;20424;-63
2023/12/25 13:33:02;;;;;;;10.30;1.83;;;;;;;;;;5040257;28;20037;-63
2023/12/25 13:35:28;;;;;;;12.60;2.47;;;;;;;;;;5036219;28;20040;-63
2023/12/25 13:37:54;;;;;;;9.97;1.53;;;;;;;;;;5042277;28;20040;-63
2023/12/25 13:40:20;;;;;;;14.30;3.53;;;;;;;;;;5031808;28;20042;-63
2023/12/25 13:42:46;;;;;;;12.60;2.30;;;;;;;;;;5029659;28;20095;-63
2023/12/25 13:45:12;;;;;;;9.47;1.63;;;;;;;;;;5029083;28;20046;-63
2023/12/25 13:47:38;;;;;;;8.87;1.47;;;;;;;;;;5029105;28;20420;-63
2023/12/25 13:50:05;;;;;;;13.00;2.10;;;;;;;;;;5029570;28;20055;-63
2023/12/25 13:52:31;;;;;;;14.70;2.50;;;;;;;;;;5029136;28;20140;-63
2023/12/25 13:54:57;;;;;;;7.60;1.70;;;;;;;;;;5029262;28;20473;-63
2023/12/25 13:57:23;;;;;;;11.07;1.87;;;;;;;;;;5028131;28;20042;-63
2023/12/25 13:59:49;;;;;;;11.53;2.67;;;;;;;;;;5029304;28;20049;-63
2023/12/25 14:02:15;;;;;;;10.27;3.33;;;;;;;;;;5029578;28;20056;-63
2023/12/25 14:04:41;;;;;;;6.17;1.57;;;;;;;;;;5028990;28;20042;-63
2023/12/25 14:07:07;;;;;;;9.17;1.53;;;;;;;;;;5029385;28;20104;-63
2023/12/25 14:09:33;;;;;;;12.97;2.40;;;;;;;;;;5028718;28;20423;-63
2023/12/25 14:11:59;;;;;;;7.77;1.63;;;;;;;;;;5028608;28;20127;-63
2023/12/25 14:14:28;;;;;;;14.50;2.30;;;;;;;;;;5029017;28;20045;-63
2023/12/25 14:16:55;;;;;;;9.53;2.40;;;;;;;;;;5028957;28;20045;-63
2023/12/25 14:19:21;;;;;;;8.80;1.80;;;;;;;;;;5028305;28;20046;-63
2023/12/25 14:21:47;;;;;;;10.60;1.60;;;;;;;;;;5028724;28;20051;-63
2023/12/25 14:24:15;;;;;;;8.73;1.43;;;;;;;;;;5028861;28;20411;-63
2023/12/25 14:26:41;;;;;;;13.37;1.87;;;;;;;;;;5028515;28;20404;-63
2023/12/25 14:29:07;;;;;;;6.03;1.53;;;;;;;;;;5028919;28;20072;-63